Time;durP1;ratioP1;P1;durP2;ratioP2;P2;SDS_P1;SDS_P2;PMS_P1;PMS_P2;Temp;Humidity;BMP_temperature;BMP_pressure;BME280_temperature;BME280_humidity;BME280_pressure;Samples;Min_cycle;Max_cycle;Signal;HPM_P1;HPM_P2
2023/08/02 00:01:48;;;;;;;10.52;3.60;;;16.40;99.90;;;;;;5008288;28;20234;-79
2023/08/02 00:04:15;;;;;;;8.15;2.80;;;16.40;99.90;;;;;;5008415;28;20234;-80
2023/08/02 00:06:42;;;;;;;11.73;3.20;;;16.40;99.90;;;;;;5008885;28;20210;-79
2023/08/02 00:09:10;;;;;;;8.23;3.40;;;16.40;99.90;;;;;;5008127;28;20210;-79
2023/08/02 00:11:37;;;;;;;5.00;2.90;;;16.30;99.90;;;;;;5008100;28;20210;-81
2023/08/02 00:14:04;;;;;;;6.38;3.53;;;16.30;99.90;;;;;;5007625;28;20261;-80
2023/08/02 00:16:32;;;;;;;9.40;2.83;;;16.30;99.90;;;;;;4989045;28;20314;-77
2023/08/02 00:18:59;;;;;;;4.60;2.70;;;16.30;99.90;;;;;;5002569;28;20203;-80
2023/08/02 00:21:26;;;;;;;6.95;2.92;;;16.30;99.90;;;;;;5008157;28;20202;-79
2023/08/02 00:23:53;;;;;;;6.78;3.33;;;16.40;99.90;;;;;;5006973;28;20195;-79
2023/08/02 00:26:19;;;;;;;7.20;3.23;;;16.40;99.90;;;;;;5001370;28;20687;-79
2023/08/02 00:28:46;;;;;;;8.15;3.65;;;16.30;99.90;;;;;;5008095;28;20588;-79
2023/08/02 00:31:13;;;;;;;6.72;3.20;;;16.30;99.90;;;;;;5011716;28;20209;-79
2023/08/02 00:33:40;;;;;;;5.90;3.00;;;16.30;99.90;;;;;;5010600;28;20840;-80
2023/08/02 00:36:08;;;;;;;6.73;2.83;;;16.40;99.90;;;;;;5011975;28;20226;-79
2023/08/02 00:38:35;;;;;;;9.07;3.27;;;16.30;99.90;;;;;;5008583;28;20211;-80
2023/08/02 00:41:06;;;;;;;12.20;3.57;;;16.20;99.90;;;;;;5006143;28;20215;-81
2023/08/02 00:43:43;;;;;;;6.77;3.60;;;16.20;99.90;;;;;;5011078;28;20618;-79
2023/08/02 00:46:13;;;;;;;9.03;4.00;;;16.30;99.90;;;;;;5006317;28;20199;-79
2023/08/02 00:48:40;;;;;;;8.15;3.65;;;16.10;99.90;;;;;;5005139;28;20617;-80
2023/08/02 00:51:16;;;;;;;6.97;3.60;;;16.10;99.90;;;;;;5011274;28;20203;-80
2023/08/02 00:53:46;;;;;;;8.23;3.40;;;16.10;99.90;;;;;;5011059;28;20218;-79
2023/08/02 00:56:16;;;;;;;12.50;4.30;;;16.10;99.90;;;;;;5003085;28;20309;-79
2023/08/02 00:58:43;;;;;;;6.17;3.47;;;16.10;99.90;;;;;;5010697;28;20643;-79
2023/08/02 01:01:10;;;;;;;8.10;3.70;;;16.10;99.90;;;;;;5011185;28;20221;-79
2023/08/02 01:03:41;;;;;;;9.13;3.90;;;16.10;99.90;;;;;;5009401;28;20311;-79
2023/08/02 01:06:12;;;;;;;6.07;3.90;;;16.10;99.90;;;;;;5010986;28;20269;-80
2023/08/02 01:08:43;;;;;;;11.47;4.07;;;16.20;99.90;;;;;;5006968;28;20199;-80
2023/08/02 01:11:27;;;;;;;6.97;4.10;;;16.10;99.90;;;;;;5006683;28;20243;-81
2023/08/02 01:13:56;;;;;;;6.47;3.40;;;16.20;99.90;;;;;;5011206;28;20294;-78
2023/08/02 01:16:24;;;;;;;8.70;3.95;;;16.20;99.90;;;;;;5011943;28;20234;-78
2023/08/02 01:19:11;;;;;;;7.30;3.42;;;16.20;99.90;;;;;;5005657;28;20203;-80
2023/08/02 01:21:38;;;;;;;8.10;3.93;;;16.30;99.90;;;;;;5010563;28;20253;-79
2023/08/02 01:24:07;;;;;;;9.43;3.85;;;16.30;99.90;;;;;;5010617;28;20214;-79
2023/08/02 01:26:39;;;;;;;10.37;4.27;;;16.30;99.90;;;;;;5000438;28;20231;-80
2023/08/02 01:29:12;;;;;;;7.05;4.00;;;16.30;99.90;;;;;;5010367;28;20207;-80
2023/08/02 01:31:41;;;;;;;9.10;4.00;;;16.30;99.90;;;;;;5010059;28;20287;-78
2023/08/02 01:34:09;;;;;;;6.73;3.93;;;16.40;99.90;;;;;;5010462;28;20685;-79
2023/08/02 01:36:36;;;;;;;8.38;4.30;;;16.30;99.90;;;;;;5010317;28;20229;-79
2023/08/02 01:39:03;;;;;;;8.68;3.83;;;16.40;99.90;;;;;;5009540;28;20210;-79
2023/08/02 01:41:30;;;;;;;6.78;3.47;;;16.40;99.90;;;;;;5005026;28;20222;-78
2023/08/02 01:43:57;;;;;;;7.07;3.50;;;16.40;99.90;;;;;;5006563;28;20260;-80
2023/08/02 01:46:24;;;;;;;6.68;3.88;;;16.30;99.90;;;;;;5010594;28;20253;-79
2023/08/02 01:48:51;;;;;;;6.40;3.45;;;16.30;99.90;;;;;;5009758;28;20268;-79
2023/08/02 01:51:17;;;;;;;8.02;3.85;;;16.30;99.90;;;;;;5009765;28;20671;-79
2023/08/02 01:53:44;;;;;;;4.23;3.50;;;16.30;99.90;;;;;;5008573;28;20254;-79
2023/08/02 01:56:11;;;;;;;8.27;3.40;;;16.30;99.90;;;;;;4999347;28;20242;-79
2023/08/02 01:58:38;;;;;;;12.13;4.13;;;16.20;99.90;;;;;;5009707;28;20648;-79
2023/08/02 02:01:04;;;;;;;8.43;3.83;;;16.20;99.90;;;;;;5009878;28;20269;-79
2023/08/02 02:03:31;;;;;;;7.03;4.10;;;16.10;99.90;;;;;;5009596;28;20321;-79
2023/08/02 02:05:59;;;;;;;13.00;4.00;;;16.10;99.90;;;;;;5009970;28;20261;-80
2023/08/02 02:08:26;;;;;;;7.93;4.20;;;16.10;99.90;;;;;;5003987;28;20264;-79
2023/08/02 02:10:54;;;;;;;6.00;3.67;;;16.00;99.90;;;;;;5001462;28;20290;-76
2023/08/02 02:13:23;;;;;;;10.23;3.90;;;16.00;99.90;;;;;;5000116;28;20215;-79
2023/08/02 02:15:51;;;;;;;10.13;4.10;;;15.90;99.90;;;;;;5007124;28;21004;-80
2023/08/02 02:18:18;;;;;;;8.50;3.53;;;15.90;99.90;;;;;;5010095;28;20746;-79
2023/08/02 02:20:45;;;;;;;9.20;3.50;;;15.90;99.90;;;;;;5000582;28;20214;-79
2023/08/02 02:23:12;;;;;;;6.80;3.87;;;15.80;99.90;;;;;;5003509;28;20718;-79
2023/08/02 02:25:38;;;;;;;7.17;3.23;;;15.80;99.90;;;;;;4994899;28;20320;-79
2023/08/02 02:28:05;;;;;;;7.87;3.80;;;15.70;99.90;;;;;;5004920;28;20226;-80
2023/08/02 02:30:33;;;;;;;6.50;3.93;;;15.70;99.90;;;;;;5005796;28;20218;-79
2023/08/02 02:33:00;;;;;;;5.47;3.70;;;15.70;99.90;;;;;;4996683;28;20637;-79
2023/08/02 02:35:28;;;;;;;9.30;3.93;;;15.60;99.90;;;;;;5009506;28;20293;-79
2023/08/02 02:37:54;;;;;;;9.70;3.80;;;15.60;99.90;;;;;;5010240;28;20214;-80
2023/08/02 02:40:21;;;;;;;10.03;4.20;;;15.60;99.90;;;;;;5006976;28;20670;-80
2023/08/02 02:42:48;;;;;;;7.37;4.10;;;15.60;99.90;;;;;;4994371;28;20219;-80
2023/08/02 02:45:15;;;;;;;11.33;4.60;;;15.50;99.90;;;;;;5003663;28;20686;-81
2023/08/02 02:47:42;;;;;;;8.87;4.03;;;15.70;99.90;;;;;;4990760;28;20250;-80
2023/08/02 02:50:16;;;;;;;7.77;4.37;;;15.70;99.90;;;;;;5008754;28;20217;-80
2023/08/02 02:52:43;;;;;;;5.73;3.83;;;15.70;99.90;;;;;;5022534;28;20537;-79
2023/08/02 02:55:10;;;;;;;7.00;3.93;;;15.60;99.90;;;;;;5033207;28;20202;-79
2023/08/02 02:57:36;;;;;;;7.03;4.20;;;15.70;99.90;;;;;;5033656;28;20245;-79
2023/08/02 03:00:05;;;;;;;7.23;3.97;;;15.70;99.90;;;;;;5033418;28;20234;-79
2023/08/02 03:02:32;;;;;;;8.83;3.53;;;15.70;99.90;;;;;;5014797;28;20627;-79
2023/08/02 03:04:59;;;;;;;8.23;3.90;;;15.60;99.90;;;;;;5009455;28;20202;-78
2023/08/02 03:07:26;;;;;;;10.17;4.23;;;15.60;99.90;;;;;;4998473;28;20227;-78
2023/08/02 03:09:53;;;;;;;8.37;4.30;;;15.60;99.90;;;;;;5001846;28;20207;-79
2023/08/02 03:12:20;;;;;;;10.57;3.93;;;15.60;99.90;;;;;;5007828;28;20214;-80
2023/08/02 03:14:47;;;;;;;11.07;4.07;;;15.60;99.90;;;;;;5009296;28;20206;-78
2023/08/02 03:17:14;;;;;;;5.17;3.60;;;15.60;99.90;;;;;;5008670;28;20219;-80
2023/08/02 03:19:41;;;;;;;10.33;4.13;;;15.60;99.90;;;;;;5005544;28;20628;-79
2023/08/02 03:22:08;;;;;;;7.30;3.07;;;15.60;99.90;;;;;;5004879;28;20268;-79
2023/08/02 03:24:35;;;;;;;5.53;3.30;;;15.60;99.90;;;;;;5007763;28;20695;-79
2023/08/02 03:27:01;;;;;;;7.23;3.57;;;15.70;99.90;;;;;;5006720;28;20223;-78
2023/08/02 03:29:28;;;;;;;8.50;4.30;;;15.70;99.90;;;;;;5007605;28;20245;-79
2023/08/02 03:31:55;;;;;;;8.20;4.30;;;15.70;99.90;;;;;;5008288;28;20210;-79
2023/08/02 03:34:22;;;;;;;8.40;4.20;;;15.70;99.90;;;;;;5008513;28;20211;-79
2023/08/02 03:36:49;;;;;;;8.97;4.17;;;15.70;99.90;;;;;;5008780;28;20234;-78
2023/08/02 03:39:16;;;;;;;8.80;3.43;;;15.70;99.90;;;;;;5007712;28;20217;-81
2023/08/02 03:41:43;;;;;;;9.67;3.93;;;15.60;99.90;;;;;;5004267;28;20545;-78
2023/08/02 03:44:10;;;;;;;7.90;3.83;;;15.60;99.90;;;;;;5008664;28;20206;-79
2023/08/02 03:46:37;;;;;;;9.63;4.03;;;15.60;99.90;;;;;;4996583;28;20203;-79
2023/08/02 03:49:03;;;;;;;9.33;3.63;;;15.50;99.90;;;;;;5008827;28;20226;-80
2023/08/02 03:51:30;;;;;;;7.03;4.10;;;15.50;99.90;;;;;;5005148;28;20226;-80
2023/08/02 03:53:57;;;;;;;5.63;3.77;;;15.50;99.90;;;;;;5001787;28;20203;-80
2023/08/02 03:56:24;;;;;;;9.27;4.00;;;15.50;99.90;;;;;;4995469;28;20242;-79
2023/08/02 03:58:51;;;;;;;9.13;4.30;;;15.50;99.90;;;;;;5001606;28;20195;-80
2023/08/02 04:01:18;;;;;;;10.67;4.33;;;15.40;99.90;;;;;;5008514;28;20206;-79
2023/08/02 04:03:45;;;;;;;10.03;4.53;;;15.40;99.90;;;;;;5011905;28;20312;-79
2023/08/02 04:06:12;;;;;;;9.53;4.17;;;15.40;99.90;;;;;;5004772;28;20238;-79
2023/08/02 04:08:39;;;;;;;12.40;4.53;;;15.50;99.90;;;;;;5020720;28;20211;-80
2023/08/02 04:11:06;;;;;;;7.37;4.40;;;15.50;99.90;;;;;;5011897;28;20754;-80
2023/08/02 04:13:33;;;;;;;8.33;4.33;;;15.50;99.90;;;;;;5012249;28;20226;-80
2023/08/02 04:16:01;;;;;;;8.07;4.13;;;15.40;99.90;;;;;;5011462;28;20226;-80
2023/08/02 04:18:28;;;;;;;7.43;4.50;;;15.50;99.90;;;;;;5010867;28;20195;-81
2023/08/02 04:20:56;;;;;;;10.63;4.50;;;15.40;99.90;;;;;;5011577;28;20218;-80
2023/08/02 04:23:23;;;;;;;8.40;4.17;;;15.40;99.90;;;;;;5011252;28;20272;-81
2023/08/02 04:25:49;;;;;;;9.40;5.30;;;15.40;99.90;;;;;;5011644;28;20686;-80
2023/08/02 04:28:16;;;;;;;8.67;4.40;;;15.50;99.90;;;;;;5011405;28;20215;-80
2023/08/02 04:30:49;;;;;;;7.80;4.33;;;15.40;99.90;;;;;;5012389;28;20265;-80
2023/08/02 04:33:15;;;;;;;10.00;4.83;;;15.50;99.90;;;;;;5009800;28;20613;-80
2023/08/02 04:35:42;;;;;;;10.30;4.67;;;15.50;99.90;;;;;;5010449;28;20202;-78
2023/08/02 04:38:10;;;;;;;9.73;5.00;;;15.50;99.90;;;;;;5011673;28;20234;-80
2023/08/02 04:40:38;;;;;;;7.37;3.97;;;15.50;99.90;;;;;;5006831;28;20199;-78
2023/08/02 04:43:05;;;;;;;9.87;4.80;;;15.60;99.90;;;;;;5012059;28;20677;-80
2023/08/02 04:45:32;;;;;;;6.30;4.53;;;15.60;99.90;;;;;;5010182;28;20264;-80
2023/08/02 04:47:59;;;;;;;7.40;4.40;;;15.70;99.90;;;;;;5009707;28;20195;-80
2023/08/02 04:50:26;;;;;;;7.30;4.32;;;15.70;99.90;;;;;;5010899;28;20230;-80
2023/08/02 04:52:53;;;;;;;9.00;3.90;;;15.70;99.90;;;;;;5010551;28;20620;-80
2023/08/02 04:55:20;;;;;;;7.67;4.40;;;15.80;99.90;;;;;;5005164;28;20218;-80
2023/08/02 04:57:47;;;;;;;6.83;3.97;;;15.80;99.90;;;;;;5004446;28;20231;-81
2023/08/02 05:00:14;;;;;;;6.88;3.72;;;15.80;99.90;;;;;;5005660;28;20195;-80
2023/08/02 05:02:41;;;;;;;8.68;4.55;;;15.90;99.90;;;;;;5010296;28;20226;-82
2023/08/02 05:05:09;;;;;;;7.43;3.83;;;15.90;99.90;;;;;;5010749;28;20988;-79
2023/08/02 05:07:37;;;;;;;7.30;3.97;;;16.00;99.90;;;;;;5006386;28;20199;-80
2023/08/02 05:10:07;;;;;;;11.75;4.57;;;16.00;99.90;;;;;;5011000;28;20206;-79
2023/08/02 05:12:37;;;;;;;6.95;3.70;;;16.10;99.90;;;;;;5009759;28;20218;-80
2023/08/02 05:15:06;;;;;;;9.73;4.25;;;16.00;99.90;;;;;;5008047;28;20214;-79
2023/08/02 05:17:32;;;;;;;8.27;3.20;;;16.10;99.90;;;;;;4995672;28;20584;-79
2023/08/02 05:19:59;;;;;;;8.75;4.22;;;16.10;99.90;;;;;;5008738;28;20203;-80
2023/08/02 05:22:26;;;;;;;8.90;3.88;;;16.30;99.90;;;;;;5009486;28;20661;-79
2023/08/02 05:24:53;;;;;;;6.88;3.67;;;16.30;99.90;;;;;;5003940;28;20210;-80
2023/08/02 05:27:20;;;;;;;8.02;4.85;;;16.30;99.90;;;;;;4994057;28;20214;-79
2023/08/02 05:29:47;;;;;;;7.43;4.00;;;16.40;99.90;;;;;;5012283;28;20195;-80
2023/08/02 05:32:17;;;;;;;6.28;3.70;;;16.40;99.90;;;;;;5018649;28;20225;-80
2023/08/02 05:34:43;;;;;;;6.43;3.55;;;16.50;99.90;;;;;;5007759;28;20195;-79
2023/08/02 05:37:12;;;;;;;7.03;4.10;;;16.60;99.90;;;;;;4994944;28;20227;-79
2023/08/02 05:39:39;;;;;;;8.50;4.10;;;16.60;99.90;;;;;;5011673;28;20198;-80
2023/08/02 05:42:06;;;;;;;7.20;4.53;;;16.70;99.90;;;;;;5006284;28;20284;-79
2023/08/02 05:44:36;;;;;;;5.82;3.60;;;16.70;99.90;;;;;;4992888;28;20257;-79
2023/08/02 05:47:03;;;;;;;8.18;3.75;;;16.70;99.90;;;;;;4992792;28;20194;-81
2023/08/02 05:49:30;;;;;;;8.45;3.80;;;16.70;99.90;;;;;;4994287;28;20237;-79
2023/08/02 05:51:57;;;;;;;5.25;3.38;;;16.80;99.90;;;;;;5010295;28;20202;-78
2023/08/02 05:54:23;;;;;;;6.03;3.45;;;16.80;99.90;;;;;;4993373;28;20265;-79
2023/08/02 05:56:50;;;;;;;6.15;3.42;;;16.70;99.90;;;;;;5009516;28;20281;-78
2023/08/02 05:59:17;;;;;;;4.80;3.40;;;16.80;99.90;;;;;;5010180;28;20268;-78
2023/08/02 06:01:44;;;;;;;7.15;3.17;;;16.80;99.90;;;;;;5006683;28;20265;-79
2023/08/02 06:04:11;;;;;;;5.25;2.70;;;16.80;99.90;;;;;;5009528;28;20249;-79
2023/08/02 06:06:38;;;;;;;10.73;3.83;;;16.80;99.90;;;;;;5009616;28;20628;-78
2023/08/02 06:09:05;;;;;;;8.52;2.95;;;16.90;99.90;;;;;;4991237;28;20298;-81
2023/08/02 06:11:35;;;;;;;5.70;2.85;;;16.80;99.90;;;;;;5007399;28;20211;-81
2023/08/02 06:14:02;;;;;;;4.75;2.60;;;16.90;99.90;;;;;;5008691;28;20257;-83
2023/08/02 06:16:29;;;;;;;6.00;3.00;;;17.00;99.90;;;;;;5000569;28;20265;-83
2023/08/02 06:18:56;;;;;;;4.93;3.33;;;17.00;99.90;;;;;;5002185;28;20217;-81
2023/08/02 06:21:24;;;;;;;8.95;3.13;;;17.00;99.90;;;;;;4999541;28;20207;-81
2023/08/02 06:23:51;;;;;;;4.88;2.65;;;16.90;99.90;;;;;;4991863;28;20357;-82
2023/08/02 06:26:18;;;;;;;7.68;3.25;;;16.90;99.90;;;;;;5004844;28;20693;-82
2023/08/02 06:28:45;;;;;;;5.32;2.83;;;16.90;99.90;;;;;;5008626;28;20266;-82
2023/08/02 06:31:14;;;;;;;6.15;2.85;;;17.00;99.90;;;;;;4984215;28;20206;-82
2023/08/02 06:33:42;;;;;;;6.20;2.90;;;16.90;99.90;;;;;;4997375;28;20203;-81
2023/08/02 06:36:08;;;;;;;7.05;3.10;;;16.90;99.90;;;;;;4985968;28;20198;-82
2023/08/02 06:38:35;;;;;;;8.43;3.13;;;16.70;99.90;;;;;;5002145;28;20222;-82
2023/08/02 06:41:03;;;;;;;5.45;2.60;;;16.90;99.90;;;;;;5004091;28;20203;-83
2023/08/02 06:43:30;;;;;;;5.55;2.70;;;16.80;99.90;;;;;;5007417;28;20257;-83
2023/08/02 06:45:57;;;;;;;4.75;2.95;;;16.70;99.90;;;;;;4983491;28;20191;-84
2023/08/02 06:48:25;;;;;;;4.30;3.08;;;16.70;99.90;;;;;;5012557;28;20571;-83
2023/08/02 06:50:53;;;;;;;6.93;2.97;;;16.60;99.90;;;;;;5002591;28;20254;-82
2023/08/02 06:53:20;;;;;;;5.30;3.08;;;16.60;99.90;;;;;;5017134;28;20264;-82
2023/08/02 06:55:47;;;;;;;8.88;3.22;;;16.50;99.90;;;;;;5006942;28;20214;-84
2023/08/02 06:58:14;;;;;;;7.18;3.65;;;16.50;99.90;;;;;;4990426;28;20295;-83
2023/08/02 07:00:46;;;;;;;5.45;3.47;;;16.40;99.90;;;;;;4986850;28;20191;-85
2023/08/02 07:03:13;;;;;;;7.22;3.45;;;16.40;99.90;;;;;;4988373;28;20230;-84
2023/08/02 07:05:40;;;;;;;7.63;3.20;;;16.40;99.90;;;;;;5016377;28;20198;-84
2023/08/02 07:08:07;;;;;;;8.38;3.42;;;16.30;99.90;;;;;;5002370;28;20211;-83
2023/08/02 07:10:34;;;;;;;9.20;3.90;;;16.40;99.90;;;;;;4997776;28;20306;-83
2023/08/02 07:13:08;;;;;;;5.93;3.60;;;16.20;99.90;;;;;;5003331;28;20623;-84
2023/08/02 07:15:35;;;;;;;4.63;3.03;;;16.20;99.90;;;;;;5007968;28;20694;-86
2023/08/02 07:18:02;;;;;;;9.43;3.83;;;16.30;99.90;;;;;;5009723;28;20233;-85
2023/08/02 07:20:28;;;;;;;5.30;3.30;;;16.30;99.90;;;;;;5011125;28;20206;-85
2023/08/02 07:22:55;;;;;;;6.15;3.40;;;16.30;99.90;;;;;;5005929;28;20229;-82
2023/08/02 07:25:22;;;;;;;5.03;3.83;;;16.30;99.90;;;;;;5006692;28;20218;-83
2023/08/02 07:27:49;;;;;;;6.05;3.50;;;16.30;99.90;;;;;;4997661;28;20293;-82
2023/08/02 07:30:16;;;;;;;6.20;4.13;;;16.20;99.90;;;;;;5004691;28;20257;-83
2023/08/02 07:32:43;;;;;;;9.02;3.88;;;16.30;99.90;;;;;;5005038;28;20210;-83
2023/08/02 07:35:10;;;;;;;8.88;3.63;;;16.40;99.90;;;;;;4994796;28;20230;-84
2023/08/02 07:37:37;;;;;;;7.00;4.22;;;16.30;99.90;;;;;;5007336;28;20300;-84
2023/08/02 07:40:05;;;;;;;6.32;3.70;;;16.30;99.90;;;;;;5002711;28;20203;-83
2023/08/02 07:42:32;;;;;;;6.70;3.97;;;16.30;99.90;;;;;;5005394;28;20223;-85
2023/08/02 07:45:05;;;;;;;10.70;4.47;;;16.30;99.90;;;;;;5008440;28;20618;-83
2023/08/02 07:47:34;;;;;;;8.35;4.25;;;16.40;99.90;;;;;;5001787;28;20195;-86
2023/08/02 07:50:03;;;;;;;6.70;4.03;;;16.40;99.90;;;;;;5011753;28;20679;-86
2023/08/02 07:52:30;;;;;;;7.03;3.83;;;16.40;99.90;;;;;;5001347;28;20218;-85
2023/08/02 07:54:58;;;;;;;7.18;4.32;;;16.40;99.90;;;;;;5002417;28;20211;-85
2023/08/02 07:57:31;;;;;;;8.95;4.60;;;16.50;99.90;;;;;;5007908;28;20222;-87
2023/08/02 07:59:58;;;;;;;7.53;4.85;;;16.50;99.90;;;;;;5009146;28;20203;-85
2023/08/02 08:02:26;;;;;;;7.47;4.55;;;16.60;99.90;;;;;;5009205;28;20214;-85
2023/08/02 08:04:54;;;;;;;9.32;5.28;;;16.50;99.90;;;;;;4991035;28;20306;-85
2023/08/02 08:07:24;;;;;;;6.57;4.18;;;16.60;99.90;;;;;;4989448;28;20667;-85
2023/08/02 08:09:56;;;;;;;8.88;5.28;;;16.60;99.90;;;;;;4996862;28;20703;-87
2023/08/02 08:12:24;;;;;;;7.82;5.00;;;16.60;99.90;;;;;;4994110;28;20298;-85
2023/08/02 08:14:53;;;;;;;6.85;4.93;;;16.50;99.90;;;;;;4993473;28;20237;-85
2023/08/02 08:17:20;;;;;;;9.52;5.15;;;16.60;99.90;;;;;;5005334;28;20230;-83
2023/08/02 08:19:47;;;;;;;8.00;4.60;;;16.60;99.90;;;;;;5002819;28;20218;-84
2023/08/02 08:22:15;;;;;;;8.05;5.32;;;16.60;99.90;;;;;;5005031;28;20931;-83
2023/08/02 08:24:42;;;;;;;8.57;5.28;;;16.60;99.90;;;;;;5000158;28;20257;-82
2023/08/02 08:27:09;;;;;;;6.40;5.28;;;16.60;99.90;;;;;;5012110;28;20277;-83
2023/08/02 08:29:36;;;;;;;7.43;5.55;;;16.60;99.90;;;;;;5011629;28;20399;-83
2023/08/02 08:32:03;;;;;;;9.57;5.53;;;16.70;99.90;;;;;;5011836;28;20207;-82
2023/08/02 08:34:29;;;;;;;9.77;5.72;;;16.80;99.90;;;;;;4993988;28;20206;-83
2023/08/02 08:36:57;;;;;;;8.35;5.53;;;16.80;99.90;;;;;;5011650;28;20214;-82
2023/08/02 08:39:24;;;;;;;8.32;5.50;;;16.80;99.90;;;;;;5011903;28;20222;-82
2023/08/02 08:41:50;;;;;;;7.25;5.93;;;16.80;99.90;;;;;;4994347;28;20221;-83
2023/08/02 08:44:17;;;;;;;7.30;5.72;;;16.90;99.90;;;;;;4986590;28;20617;-80
2023/08/02 08:46:45;;;;;;;7.63;5.78;;;16.80;99.90;;;;;;5006199;28;20207;-79
2023/08/02 08:49:12;;;;;;;7.18;5.43;;;16.90;99.90;;;;;;5010754;28;20214;-80
2023/08/02 08:51:42;;;;;;;9.35;5.68;;;16.80;99.90;;;;;;5011114;28;20203;-77
2023/08/02 08:54:18;;;;;;;6.13;5.22;;;16.90;99.90;;;;;;5005598;28;21059;-77
2023/08/02 08:56:45;;;;;;;7.03;5.43;;;16.90;99.90;;;;;;5004939;28;20222;-79
2023/08/02 08:59:14;;;;;;;5.22;4.40;;;16.90;99.90;;;;;;4999298;28;20234;-78
2023/08/02 09:01:43;;;;;;;6.50;4.63;;;16.90;99.90;;;;;;5011647;28;20198;-79
2023/08/02 09:04:10;;;;;;;7.53;4.85;;;17.00;99.90;;;;;;5010971;28;20270;-77
2023/08/02 09:06:37;;;;;;;5.90;4.47;;;17.00;99.90;;;;;;5010745;28;20203;-80
2023/08/02 09:09:04;;;;;;;6.72;4.50;;;17.10;99.90;;;;;;5011053;28;20203;-79
2023/08/02 09:11:31;;;;;;;6.13;4.13;;;17.20;99.90;;;;;;5010427;28;20253;-81
2023/08/02 09:14:12;;;;;;;4.78;4.28;;;17.20;99.90;;;;;;5010718;28;20837;-80
2023/08/02 09:17:01;;;;;;;7.05;4.07;;;17.20;99.90;;;;;;5010834;28;20280;-80
2023/08/02 09:19:31;;;;;;;4.78;3.83;;;17.30;99.90;;;;;;5011090;28;20537;-79
2023/08/02 09:22:13;;;;;;;4.95;3.80;;;17.30;99.90;;;;;;5001432;28;20210;-80
2023/08/02 09:24:41;;;;;;;5.68;4.13;;;17.30;99.90;;;;;;5010751;28;20217;-81
2023/08/02 09:27:20;;;;;;;4.68;3.92;;;17.30;99.90;;;;;;5010707;28;20226;-80
2023/08/02 09:29:51;;;;;;;5.22;4.18;;;17.40;99.90;;;;;;5013745;28;20229;-80
2023/08/02 09:32:21;;;;;;;3.63;3.30;;;17.40;99.90;;;;;;5009583;28;20202;-80
2023/08/02 09:34:57;;;;;;;4.70;3.10;;;17.50;99.90;;;;;;4990023;28;20236;-82
2023/08/02 09:37:35;;;;;;;4.70;3.50;;;17.50;99.90;;;;;;5010893;28;20208;-80
2023/08/02 09:40:09;;;;;;;3.50;3.00;;;17.60;99.90;;;;;;4998316;28;20700;-80
2023/08/02 09:42:36;;;;;;;3.33;2.92;;;17.60;99.90;;;;;;5008849;28;20218;-80
2023/08/02 09:45:04;;;;;;;4.00;3.53;;;17.60;99.90;;;;;;5010626;28;20207;-79
2023/08/02 09:47:31;;;;;;;3.60;3.20;;;17.70;99.90;;;;;;5011500;28;20276;-80
2023/08/02 09:50:07;;;;;;;3.08;2.63;;;17.80;99.90;;;;;;4993057;28;20215;-82
2023/08/02 09:52:40;;;;;;;2.58;2.33;;;17.80;99.90;;;;;;5010234;28;20287;-81
2023/08/02 09:55:07;;;;;;;2.47;1.90;;;17.90;99.90;;;;;;5010909;28;20218;-81
2023/08/02 09:57:34;;;;;;;2.78;2.25;;;17.90;99.90;;;;;;5010163;28;20241;-82
2023/08/02 10:00:05;;;;;;;2.53;1.60;;;18.00;99.90;;;;;;5010572;28;20234;-81
2023/08/02 10:02:35;;;;;;;2.03;1.83;;;18.10;99.90;;;;;;5009764;28;20226;-82
2023/08/02 10:05:03;;;;;;;2.30;1.85;;;18.40;99.90;;;;;;5009739;28;20722;-82
2023/08/02 10:07:46;;;;;;;1.63;1.27;;;18.50;99.90;;;;;;5008959;28;20233;-82
2023/08/02 10:10:18;;;;;;;1.60;1.50;;;18.70;99.90;;;;;;4993463;28;20214;-82
2023/08/02 10:13:20;;;;;;;1.60;1.50;;;19.00;99.90;;;;;;5010142;28;20218;-81
2023/08/02 10:15:51;;;;;;;1.20;1.10;;;19.10;99.90;;;;;;4967519;28;20210;-82
2023/08/02 10:18:18;;;;;;;1.45;1.30;;;19.20;99.90;;;;;;5010056;28;20232;-82
2023/08/02 10:20:46;;;;;;;2.05;1.20;;;19.40;99.90;;;;;;4991930;28;20245;-82
2023/08/02 10:23:13;;;;;;;2.03;1.20;;;19.50;99.90;;;;;;5010039;28;20210;-83
2023/08/02 10:25:41;;;;;;;1.83;1.10;;;19.70;99.90;;;;;;5009864;28;20300;-82
2023/08/02 10:28:09;;;;;;;2.13;1.10;;;19.90;99.90;;;;;;5009970;28;20229;-82
2023/08/02 10:30:36;;;;;;;1.38;1.27;;;19.90;99.90;;;;;;5009873;28;20733;-82
2023/08/02 10:33:12;;;;;;;1.17;1.05;;;19.90;99.90;;;;;;5004394;28;20626;-82
2023/08/02 10:35:56;;;;;;;1.67;1.40;;;20.00;99.90;;;;;;5006222;28;20285;-82
2023/08/02 10:38:38;;;;;;;2.13;1.52;;;20.00;99.90;;;;;;5010591;28;20256;-81
2023/08/02 10:41:16;;;;;;;2.72;1.83;;;20.30;99.90;;;;;;5009762;28;20198;-81
2023/08/02 10:43:56;;;;;;;1.98;1.83;;;20.50;99.90;;;;;;4981073;28;20191;-81
2023/08/02 10:46:26;;;;;;;2.03;1.83;;;20.70;99.90;;;;;;4998564;28;20206;-81
2023/08/02 10:49:15;;;;;;;1.70;1.60;;;20.90;99.90;;;;;;5012013;28;20218;-82
2023/08/02 10:51:44;;;;;;;1.77;1.60;;;21.00;99.90;;;;;;4996801;28;20202;-81
2023/08/02 10:54:16;;;;;;;1.90;1.70;;;21.20;99.90;;;;;;4997577;28;20206;-82
2023/08/02 10:57:09;;;;;;;1.80;1.58;;;21.50;99.90;;;;;;5018926;28;20233;-80
2023/08/02 10:59:40;;;;;;;1.77;1.65;;;21.70;99.90;;;;;;5017238;28;20273;-80
2023/08/02 11:02:12;;;;;;;2.67;1.88;;;21.70;99.90;;;;;;4994311;28;20206;-81
2023/08/02 11:04:45;;;;;;;2.05;1.95;;;21.80;99.90;;;;;;5008075;28;20230;-81
2023/08/02 11:07:21;;;;;;;2.33;1.83;;;22.00;99.90;;;;;;5006999;28;20207;-81
2023/08/02 11:09:53;;;;;;;2.22;2.03;;;22.10;99.90;;;;;;5010397;28;20209;-80
2023/08/02 11:12:21;;;;;;;2.15;1.95;;;22.30;99.90;;;;;;5008808;28;20222;-81
2023/08/02 11:14:51;;;;;;;1.75;1.58;;;22.40;99.90;;;;;;5010077;28;20313;-82
2023/08/02 11:17:20;;;;;;;2.80;2.08;;;22.40;99.90;;;;;;4993897;28;20553;-83
2023/08/02 11:19:51;;;;;;;1.65;1.55;;;22.50;99.90;;;;;;5011513;28;20246;-82
2023/08/02 11:22:21;;;;;;;2.10;1.90;;;22.70;99.90;;;;;;5010513;28;20206;-83
2023/08/02 11:24:53;;;;;;;2.15;1.92;;;22.70;99.90;;;;;;5010787;28;20227;-82
2023/08/02 11:27:24;;;;;;;2.00;1.83;;;22.90;99.90;;;;;;4996070;28;20222;-81
2023/08/02 11:30:11;;;;;;;1.85;1.70;;;23.00;99.90;;;;;;5021713;28;20229;-82
2023/08/02 11:32:43;;;;;;;1.60;1.50;;;23.10;99.90;;;;;;5014757;28;20202;-83
2023/08/02 11:35:15;;;;;;;2.47;1.50;;;23.10;99.90;;;;;;4993940;28;20191;-83
2023/08/02 11:37:42;;;;;;;2.63;1.75;;;23.00;99.90;;;;;;5011471;28;20210;-82
2023/08/02 11:40:10;;;;;;;2.42;1.67;;;23.00;99.90;;;;;;5017312;28;20674;-83
2023/08/02 11:42:55;;;;;;;1.60;1.50;;;22.90;99.90;;;;;;4999224;28;20210;-86
2023/08/02 11:45:33;;;;;;;1.50;1.40;;;22.90;99.90;;;;;;5013155;28;20199;-84
2023/08/02 11:48:00;;;;;;;2.25;1.48;;;22.80;99.90;;;;;;5012875;28;20576;-85
2023/08/02 11:50:36;;;;;;;1.95;1.75;;;22.60;99.90;;;;;;4996058;28;20293;-85
2023/08/02 11:53:09;;;;;;;1.70;1.50;;;22.50;99.90;;;;;;5014037;28;20652;-85
2023/08/02 11:55:38;;;;;;;3.78;1.80;;;22.50;99.90;;;;;;4996278;28;20203;-84
2023/08/02 11:58:07;;;;;;;3.63;2.17;;;22.20;99.90;;;;;;4994642;28;20270;-85
2023/08/02 12:00:35;;;;;;;1.83;1.73;;;22.20;99.90;;;;;;4997989;28;20562;-82
2023/08/02 12:03:13;;;;;;;2.47;2.25;;;22.20;99.90;;;;;;5007498;28;20663;-81
2023/08/02 12:05:41;;;;;;;2.35;2.15;;;22.10;99.90;;;;;;4998020;28;20671;-84
2023/08/02 12:08:16;;;;;;;2.13;1.92;;;22.00;99.90;;;;;;5010001;28;20209;-81
2023/08/02 12:10:46;;;;;;;3.45;2.55;;;21.90;99.90;;;;;;5010562;28;20329;-82
2023/08/02 12:13:16;;;;;;;2.55;2.35;;;21.90;99.90;;;;;;5009391;28;20215;-83
2023/08/02 12:16:05;;;;;;;2.30;2.10;;;21.90;99.90;;;;;;5009095;28;20199;-83
2023/08/02 12:18:32;;;;;;;2.45;2.20;;;21.90;99.90;;;;;;4999981;28;20265;-82
2023/08/02 12:21:17;;;;;;;3.00;2.70;;;22.00;99.90;;;;;;5012742;28;20213;-84
2023/08/02 12:23:47;;;;;;;4.15;3.10;;;22.00;99.90;;;;;;5007285;28;20245;-86
2023/08/02 12:26:32;;;;;;;3.67;3.10;;;21.90;99.90;;;;;;5015940;28;20217;-86
2023/08/02 12:29:00;;;;;;;3.72;2.92;;;21.90;99.90;;;;;;5018558;28;20257;-85
2023/08/02 12:31:27;;;;;;;3.88;3.05;;;21.90;99.90;;;;;;5003973;28;20214;-85
2023/08/02 12:33:57;;;;;;;3.40;3.10;;;22.00;99.90;;;;;;5019861;28;20697;-85
2023/08/02 12:36:27;;;;;;;3.20;2.75;;;22.00;99.90;;;;;;5000974;28;20568;-86
2023/08/02 12:38:55;;;;;;;3.22;2.80;;;22.10;99.90;;;;;;5008645;28;20245;-84
2023/08/02 12:41:23;;;;;;;3.80;2.75;;;22.10;99.90;;;;;;5016391;28;20191;-86
2023/08/02 12:43:51;;;;;;;3.22;2.75;;;22.30;99.90;;;;;;5017857;28;20206;-84
2023/08/02 12:46:19;;;;;;;4.07;2.78;;;22.50;99.90;;;;;;5016791;28;20202;-85
2023/08/02 12:48:50;;;;;;;3.65;2.88;;;22.90;99.90;;;;;;5014458;28;20564;-84
2023/08/02 12:51:17;;;;;;;3.90;2.60;;;23.00;99.90;;;;;;5013025;28;20214;-84
2023/08/02 12:53:44;;;;;;;1.98;1.85;;;23.20;99.90;;;;;;5013279;28;20215;-84
2023/08/02 12:56:12;;;;;;;2.03;1.70;;;23.30;99.90;;;;;;5013921;28;20260;-82